createdAt,value
2023-07-26T00:01:52.673Z,99.90
2023-07-26T00:04:19.588Z,99.90
2023-07-26T00:06:46.557Z,99.90
2023-07-26T00:09:13.467Z,99.90
2023-07-26T00:11:40.320Z,99.90
2023-07-26T00:14:10.155Z,99.90
2023-07-26T00:16:37.268Z,99.90
2023-07-26T00:19:04.260Z,99.90
2023-07-26T00:21:31.132Z,99.90
2023-07-26T00:24:00.016Z,99.90
2023-07-26T00:26:27.219Z,99.90
2023-07-26T00:28:54.118Z,99.90
2023-07-26T00:31:21.984Z,99.90
2023-07-26T00:33:49.185Z,99.90
2023-07-26T00:36:16.110Z,99.90
2023-07-26T00:38:43.035Z,99.90
2023-07-26T00:41:10.007Z,99.90
2023-07-26T00:43:36.903Z,99.90
2023-07-26T00:46:06.288Z,99.90
2023-07-26T00:48:33.475Z,99.90
2023-07-26T00:51:01.812Z,99.90
2023-07-26T00:53:29.405Z,99.90
2023-07-26T00:55:56.619Z,99.90
2023-07-26T00:58:23.545Z,99.90
2023-07-26T01:00:51.542Z,99.90
2023-07-26T01:03:18.950Z,99.90
2023-07-26T01:06:24.104Z,99.90
2023-07-26T01:08:51.015Z,99.90
2023-07-26T01:11:41.633Z,99.90
2023-07-26T01:14:18.762Z,99.90
2023-07-26T01:16:47.389Z,99.90
2023-07-26T01:19:14.367Z,99.90
2023-07-26T01:21:41.248Z,99.90
2023-07-26T01:24:08.246Z,99.90
2023-07-26T01:26:35.149Z,99.90
2023-07-26T01:29:02.063Z,99.90
2023-07-26T01:31:29.047Z,99.90
2023-07-26T01:33:57.681Z,99.90
2023-07-26T01:36:25.370Z,99.90
2023-07-26T01:38:53.561Z,99.90
2023-07-26T01:41:22.194Z,99.90
2023-07-26T01:43:49.055Z,99.90
2023-07-26T01:46:16.360Z,99.90
2023-07-26T01:48:43.314Z,99.90
2023-07-26T01:51:10.510Z,99.90
2023-07-26T01:53:37.540Z,99.90
2023-07-26T01:56:04.864Z,99.90
2023-07-26T01:58:31.791Z,99.90
2023-07-26T02:00:59.304Z,99.90
2023-07-26T02:03:26.267Z,99.90
2023-07-26T02:05:53.197Z,99.90
2023-07-26T02:08:20.888Z,99.90
2023-07-26T02:10:47.833Z,99.90
2023-07-26T02:13:14.702Z,99.90
2023-07-26T02:15:41.842Z,99.90
2023-07-26T02:18:08.731Z,99.90
2023-07-26T02:20:36.080Z,99.90
2023-07-26T02:23:03.492Z,99.90
2023-07-26T02:25:30.509Z,99.90
2023-07-26T02:27:57.447Z,99.90
2023-07-26T02:30:24.352Z,99.90
2023-07-26T02:32:51.311Z,99.90
2023-07-26T02:35:18.574Z,99.90
2023-07-26T02:37:45.534Z,99.90
2023-07-26T02:40:13.008Z,99.90
2023-07-26T02:42:39.992Z,99.90
2023-07-26T02:45:07.217Z,99.90
2023-07-26T02:47:34.397Z,99.90
2023-07-26T02:50:02.699Z,99.90
2023-07-26T02:52:29.635Z,99.90
2023-07-26T02:54:56.552Z,99.90
2023-07-26T02:57:23.683Z,99.90
2023-07-26T02:59:50.564Z,99.90
2023-07-26T03:02:17.480Z,99.90
2023-07-26T03:04:44.390Z,99.90
2023-07-26T03:07:11.233Z,99.90
2023-07-26T03:09:38.081Z,99.90
2023-07-26T03:12:05.324Z,99.90
2023-07-26T03:14:32.406Z,99.90
2023-07-26T03:17:05.284Z,99.90
2023-07-26T03:19:39.145Z,99.90
2023-07-26T03:22:06.180Z,99.90
2023-07-26T03:24:33.252Z,99.90
2023-07-26T03:27:00.265Z,99.90
2023-07-26T03:29:27.138Z,99.90
2023-07-26T03:31:55.146Z,99.90
2023-07-26T03:34:22.211Z,99.90
2023-07-26T03:36:49.137Z,99.90
2023-07-26T03:39:15.983Z,99.90
2023-07-26T03:41:42.963Z,99.90
2023-07-26T03:44:09.815Z,99.90
2023-07-26T03:46:36.904Z,99.90
2023-07-26T03:49:03.973Z,99.90
2023-07-26T03:51:30.904Z,99.90
2023-07-26T03:53:57.757Z,99.90
2023-07-26T03:56:24.682Z,99.90
2023-07-26T03:58:51.575Z,99.90
2023-07-26T04:01:18.561Z,99.90
2023-07-26T04:03:45.588Z,99.90
2023-07-26T04:06:13.663Z,99.90
2023-07-26T04:08:41.261Z,99.90
2023-07-26T04:11:08.673Z,99.90
2023-07-26T04:13:35.637Z,99.90
2023-07-26T04:16:02.624Z,99.90
2023-07-26T04:18:29.546Z,99.90
2023-07-26T04:20:56.429Z,99.90
2023-07-26T04:23:23.387Z,99.90
2023-07-26T04:25:51.750Z,99.90
2023-07-26T04:28:18.608Z,99.90
2023-07-26T04:30:45.870Z,99.90
2023-07-26T04:33:12.782Z,99.90
2023-07-26T04:35:39.749Z,99.90
2023-07-26T04:38:06.665Z,99.90
2023-07-26T04:40:33.586Z,99.90
2023-07-26T04:43:00.532Z,99.90
2023-07-26T04:45:27.456Z,99.90
2023-07-26T04:47:54.394Z,99.90
2023-07-26T04:50:21.338Z,99.90
2023-07-26T04:52:48.223Z,99.90
2023-07-26T04:55:15.173Z,99.90
2023-07-26T04:57:42.051Z,99.90
2023-07-26T05:00:09.466Z,99.90
2023-07-26T05:02:37.137Z,99.90
2023-07-26T05:05:04.411Z,99.90
2023-07-26T05:07:31.269Z,99.90
2023-07-26T05:09:59.068Z,99.90
2023-07-26T05:12:25.973Z,99.90
2023-07-26T05:14:53.056Z,99.90
2023-07-26T05:17:20.115Z,99.90
2023-07-26T05:19:47.015Z,99.90
2023-07-26T05:22:13.892Z,99.90
2023-07-26T05:24:40.821Z,99.90
2023-07-26T05:27:07.795Z,99.90
2023-07-26T05:29:34.689Z,99.90
2023-07-26T05:32:01.602Z,99.90
2023-07-26T05:34:28.469Z,99.90
2023-07-26T05:36:55.314Z,99.90
2023-07-26T05:39:22.210Z,99.90
2023-07-26T05:41:49.703Z,99.90
2023-07-26T05:44:16.612Z,99.90
2023-07-26T05:46:43.476Z,99.90
2023-07-26T05:49:11.436Z,99.90
2023-07-26T05:51:38.320Z,99.90
2023-07-26T05:54:05.200Z,99.90
2023-07-26T05:56:32.115Z,99.90
2023-07-26T05:58:58.996Z,99.90
2023-07-26T06:01:25.900Z,99.90
2023-07-26T06:03:52.781Z,99.90
2023-07-26T06:06:19.776Z,99.90
2023-07-26T06:08:46.775Z,99.90
2023-07-26T06:11:13.724Z,99.90
2023-07-26T06:13:40.753Z,99.90
2023-07-26T06:16:07.859Z,99.90
2023-07-26T06:18:34.750Z,99.90
2023-07-26T06:21:01.669Z,99.90
2023-07-26T06:23:28.584Z,99.90
2023-07-26T06:25:55.477Z,99.90
2023-07-26T06:28:22.366Z,99.90
2023-07-26T06:30:49.850Z,99.90
2023-07-26T06:33:16.825Z,99.90
2023-07-26T06:35:43.794Z,99.90
2023-07-26T06:38:10.770Z,99.90
2023-07-26T06:40:38.263Z,99.90
2023-07-26T06:43:06.626Z,99.90
2023-07-26T06:45:33.972Z,99.90
2023-07-26T06:48:00.872Z,99.90
2023-07-26T06:50:27.803Z,99.90
2023-07-26T06:52:54.751Z,99.90
2023-07-26T06:55:21.693Z,99.90
2023-07-26T06:57:48.625Z,99.90
2023-07-26T07:00:17.060Z,99.90
2023-07-26T07:02:44.049Z,99.90
2023-07-26T07:05:11.142Z,99.90
2023-07-26T07:07:38.052Z,99.90
2023-07-26T07:10:05.548Z,99.90
2023-07-26T07:12:32.508Z,99.90
2023-07-26T07:14:59.383Z,99.90
2023-07-26T07:17:26.301Z,99.90
2023-07-26T07:19:53.328Z,99.90
2023-07-26T07:22:20.246Z,99.90
2023-07-26T07:24:47.251Z,99.90
2023-07-26T07:27:14.185Z,99.90
2023-07-26T07:29:41.427Z,99.90
2023-07-26T07:32:21.375Z,99.90
2023-07-26T07:34:50.011Z,99.90
2023-07-26T07:37:16.901Z,99.90
2023-07-26T07:39:43.976Z,99.90
2023-07-26T07:42:10.880Z,99.90
2023-07-26T07:44:38.241Z,99.90
2023-07-26T07:47:06.649Z,99.90
2023-07-26T07:49:34.855Z,99.90
2023-07-26T07:52:01.784Z,99.90
2023-07-26T07:54:28.707Z,99.90
2023-07-26T07:56:55.554Z,99.90
2023-07-26T07:59:22.463Z,99.90
2023-07-26T08:01:49.407Z,99.90
2023-07-26T08:04:16.324Z,99.90
2023-07-26T08:06:43.185Z,99.90
2023-07-26T08:09:10.095Z,99.90
2023-07-26T08:11:37.147Z,99.90
2023-07-26T08:14:04.559Z,99.90
2023-07-26T08:16:31.481Z,99.90
2023-07-26T08:19:02.361Z,99.90
2023-07-26T08:21:29.283Z,99.90
2023-07-26T08:23:56.174Z,99.90
2023-07-26T08:26:23.590Z,99.90
2023-07-26T08:28:50.513Z,99.90
2023-07-26T08:31:17.903Z,99.90
2023-07-26T08:33:44.886Z,99.90
2023-07-26T08:36:11.733Z,99.90
2023-07-26T08:38:38.712Z,99.90
2023-07-26T08:41:07.446Z,99.90
2023-07-26T08:43:38.613Z,99.90
2023-07-26T08:46:08.540Z,99.90
2023-07-26T08:48:37.992Z,99.90
2023-07-26T08:51:06.496Z,99.90
2023-07-26T08:53:35.212Z,99.90
2023-07-26T08:56:02.696Z,99.90
2023-07-26T08:58:29.831Z,99.90
2023-07-26T09:00:57.612Z,99.90
2023-07-26T09:03:24.708Z,99.90
2023-07-26T09:06:05.058Z,99.90
2023-07-26T09:08:32.491Z,99.90
2023-07-26T09:11:01.426Z,99.90
2023-07-26T09:13:28.507Z,99.90
2023-07-26T09:15:55.618Z,99.90
2023-07-26T09:18:22.626Z,99.90
2023-07-26T09:21:02.353Z,99.90
2023-07-26T09:23:29.404Z,99.90
2023-07-26T09:25:56.267Z,99.90
2023-07-26T09:28:25.911Z,99.90
2023-07-26T09:30:53.202Z,99.90
2023-07-26T09:33:23.585Z,99.90
2023-07-26T09:35:54.700Z,99.90
2023-07-26T09:38:26.589Z,99.90
2023-07-26T09:40:53.508Z,99.90
2023-07-26T09:43:34.150Z,99.90
2023-07-26T09:46:05.941Z,99.90
2023-07-26T09:53:41.013Z,99.90
2023-07-26T09:56:08.399Z,99.90
2023-07-26T09:58:36.440Z,99.90
2023-07-26T10:01:04.234Z,99.90
2023-07-26T10:03:34.780Z,99.90
2023-07-26T10:06:02.480Z,99.90
2023-07-26T10:08:29.710Z,99.90
2023-07-26T10:10:58.743Z,99.90
2023-07-26T10:13:28.559Z,99.90
2023-07-26T10:15:57.607Z,99.90
2023-07-26T10:18:29.122Z,99.90
2023-07-26T10:20:59.173Z,99.90
2023-07-26T10:23:26.887Z,99.90
2023-07-26T10:25:56.179Z,99.90
2023-07-26T10:28:23.754Z,99.90
2023-07-26T10:30:53.052Z,99.90
2023-07-26T10:33:20.047Z,99.90
2023-07-26T10:35:47.290Z,99.90
2023-07-26T10:38:16.340Z,99.90
2023-07-26T10:40:45.145Z,99.90
2023-07-26T10:43:21.092Z,99.90
2023-07-26T10:45:55.161Z,99.90
2023-07-26T10:48:28.090Z,99.90
2023-07-26T10:51:21.390Z,99.90
2023-07-26T10:53:48.250Z,99.90
2023-07-26T10:56:25.015Z,99.90
2023-07-26T10:58:56.780Z,99.90
2023-07-26T11:01:40.187Z,99.90
2023-07-26T11:04:20.560Z,99.90
2023-07-26T11:07:00.310Z,99.90
2023-07-26T11:09:35.112Z,99.90
2023-07-26T11:12:04.965Z,99.90
2023-07-26T11:14:35.114Z,99.90
2023-07-26T11:17:15.858Z,99.90
2023-07-26T11:19:50.555Z,99.90
2023-07-26T11:22:19.620Z,99.90
2023-07-26T11:24:47.666Z,99.90
2023-07-26T11:27:14.963Z,99.50
2023-07-26T11:29:41.881Z,99.90
2023-07-26T11:32:08.993Z,99.90
2023-07-26T11:34:36.097Z,99.80
2023-07-26T11:37:09.947Z,98.80
2023-07-26T11:39:37.767Z,97.60
2023-07-26T11:42:06.146Z,99.50
2023-07-26T11:44:33.533Z,99.90
2023-07-26T11:47:04.194Z,99.90
2023-07-26T11:49:33.348Z,99.90
2023-07-26T11:52:00.475Z,99.90
2023-07-26T11:54:27.450Z,99.90
2023-07-26T11:56:54.422Z,99.90
2023-07-26T11:59:21.602Z,99.90
2023-07-26T12:01:49.299Z,99.90
2023-07-26T12:04:19.498Z,99.90
2023-07-26T12:06:49.490Z,99.90
2023-07-26T12:09:16.751Z,99.90
2023-07-26T12:11:51.842Z,99.90
2023-07-26T12:14:21.377Z,99.90
2023-07-26T12:16:53.220Z,99.90
2023-07-26T12:19:22.003Z,99.90
2023-07-26T12:21:49.812Z,99.90
2023-07-26T12:24:17.210Z,99.90
2023-07-26T12:26:48.922Z,99.90
2023-07-26T12:29:16.703Z,99.90
2023-07-26T12:31:43.681Z,99.60
2023-07-26T12:34:15.198Z,98.40
2023-07-26T12:36:49.808Z,97.30
2023-07-26T12:39:20.716Z,97.50
2023-07-26T12:41:48.059Z,97.50
2023-07-26T12:44:17.317Z,96.70
2023-07-26T12:47:22.757Z,96.30
2023-07-26T12:49:32.511Z,96.90
2023-07-26T12:52:00.660Z,97.90
2023-07-26T12:54:28.032Z,97.10
2023-07-26T12:56:55.888Z,96.50
2023-07-26T12:59:22.796Z,95.30
2023-07-26T13:01:49.785Z,95.60
2023-07-26T13:04:17.136Z,95.50
2023-07-26T13:06:44.140Z,95.70
2023-07-26T13:09:11.075Z,95.30
2023-07-26T13:11:37.958Z,95.90
2023-07-26T13:14:05.025Z,94.60
2023-07-26T13:16:33.670Z,94.20
2023-07-26T13:19:02.790Z,93.90
2023-07-26T13:21:30.217Z,94.00
2023-07-26T13:23:57.656Z,94.90
2023-07-26T13:26:25.457Z,96.10
2023-07-26T13:28:52.395Z,98.10
2023-07-26T13:31:20.031Z,98.40
2023-07-26T13:33:50.852Z,97.70
2023-07-26T13:36:25.033Z,96.40
2023-07-26T13:38:52.435Z,96.20
2023-07-26T13:41:20.045Z,96.00
2023-07-26T13:43:47.625Z,95.40
2023-07-26T13:48:44.514Z,96.10
2023-07-26T13:51:11.506Z,96.60
2023-07-26T13:53:38.421Z,97.30
2023-07-26T13:56:05.586Z,98.60
2023-07-26T13:58:32.520Z,98.80
2023-07-26T14:00:59.444Z,99.90
2023-07-26T14:03:27.258Z,98.40
2023-07-26T14:05:54.187Z,97.10
2023-07-26T14:08:21.125Z,96.90
2023-07-26T14:10:48.193Z,95.80
2023-07-26T14:13:16.842Z,94.20
2023-07-26T14:15:43.946Z,92.40
2023-07-26T14:18:11.059Z,93.00
2023-07-26T14:20:38.202Z,94.10
2023-07-26T14:23:05.228Z,93.90
2023-07-26T14:25:34.450Z,94.10
2023-07-26T14:28:01.388Z,95.00
2023-07-26T14:30:28.338Z,95.60
2023-07-26T14:32:55.318Z,96.20
2023-07-26T14:35:22.322Z,96.90
2023-07-26T14:37:49.413Z,98.20
2023-07-26T14:40:16.606Z,99.00
2023-07-26T14:42:44.221Z,99.50
2023-07-26T14:45:11.303Z,99.90
2023-07-26T14:47:38.204Z,99.90
2023-07-26T14:50:05.531Z,99.90
2023-07-26T14:52:33.673Z,99.90
2023-07-26T14:55:01.390Z,99.90
2023-07-26T14:57:28.318Z,99.90
2023-07-26T14:59:55.317Z,99.90
2023-07-26T15:02:22.310Z,99.90
2023-07-26T15:04:49.440Z,99.10
2023-07-26T15:07:16.430Z,98.60
2023-07-26T15:09:43.439Z,97.20
2023-07-26T15:12:10.598Z,97.00
2023-07-26T15:14:37.662Z,96.60
2023-07-26T15:17:05.013Z,96.70
2023-07-26T15:19:31.931Z,96.30
2023-07-26T15:21:58.914Z,96.70
2023-07-26T15:24:28.870Z,97.20
2023-07-26T15:26:55.814Z,98.10
2023-07-26T15:29:22.763Z,98.70
2023-07-26T15:31:49.728Z,99.90
2023-07-26T15:34:16.660Z,99.90
2023-07-26T15:36:44.052Z,99.90
2023-07-26T15:39:11.072Z,99.90
2023-07-26T15:44:12.392Z,99.90
2023-07-26T15:46:42.629Z,99.90
2023-07-26T15:49:16.991Z,99.10
2023-07-26T15:51:44.354Z,98.20
2023-07-26T15:54:11.371Z,96.70
2023-07-26T15:56:38.273Z,95.90
2023-07-26T15:59:05.168Z,95.60
2023-07-26T16:01:32.461Z,96.50
2023-07-26T16:03:59.658Z,96.20
2023-07-26T16:06:28.419Z,96.10
2023-07-26T16:09:28.051Z,95.20
2023-07-26T16:19:13.461Z,91.80
2023-07-26T16:24:10.783Z,92.30
2023-07-26T16:26:37.770Z,91.90
2023-07-26T16:29:06.175Z,92.30
2023-07-26T16:31:33.358Z,93.00
2023-07-26T16:34:00.513Z,91.90
2023-07-26T16:36:27.388Z,92.40
2023-07-26T16:38:54.317Z,92.00
2023-07-26T16:41:21.191Z,91.20
2023-07-26T16:43:48.072Z,91.10
2023-07-26T16:46:15.013Z,90.50
2023-07-26T16:48:41.972Z,91.00
2023-07-26T16:51:08.912Z,90.80
2023-07-26T16:53:35.851Z,90.80
2023-07-26T16:56:02.836Z,92.70
2023-07-26T16:58:29.759Z,92.90
2023-07-26T17:00:57.292Z,94.10
2023-07-26T17:03:24.341Z,94.50
2023-07-26T17:05:51.276Z,96.10
2023-07-26T17:08:18.225Z,96.10
2023-07-26T17:10:45.115Z,95.30
2023-07-26T17:13:12.026Z,96.90
2023-07-26T17:15:39.054Z,97.60
2023-07-26T17:18:06.145Z,98.30
2023-07-26T17:20:33.023Z,98.40
2023-07-26T17:22:59.914Z,98.70
2023-07-26T17:25:26.879Z,99.90
2023-07-26T17:27:53.856Z,99.90
2023-07-26T17:30:23.037Z,99.90
2023-07-26T17:35:18.134Z,99.90
2023-07-26T17:37:46.114Z,99.90
2023-07-26T17:40:13.822Z,99.90
2023-07-26T17:42:40.824Z,99.90
2023-07-26T17:45:08.084Z,99.90
2023-07-26T17:47:35.079Z,99.90
2023-07-26T17:50:01.994Z,99.90
2023-07-26T17:52:28.898Z,99.90
2023-07-26T17:54:55.819Z,99.90
2023-07-26T17:57:22.800Z,99.90
2023-07-26T17:59:49.688Z,99.90
2023-07-26T18:02:16.831Z,99.90
2023-07-26T18:04:43.911Z,99.90
2023-07-26T18:07:11.116Z,99.90
2023-07-26T18:09:38.130Z,99.90
2023-07-26T18:12:05.375Z,99.90
2023-07-26T18:14:32.338Z,99.90
2023-07-26T18:16:59.233Z,99.90
2023-07-26T18:19:26.197Z,99.90
2023-07-26T18:21:53.074Z,99.90
2023-07-26T18:24:20.039Z,99.90
2023-07-26T18:26:47.226Z,99.90
2023-07-26T18:29:14.173Z,99.90
2023-07-26T18:31:41.755Z,99.90
2023-07-26T18:34:09.129Z,99.90
2023-07-26T18:36:36.520Z,99.90
2023-07-26T18:39:03.864Z,99.90
2023-07-26T18:41:31.140Z,99.90
2023-07-26T18:43:58.209Z,99.90
2023-07-26T18:46:25.068Z,99.90
2023-07-26T18:48:52.324Z,99.90
2023-07-26T18:51:19.394Z,99.90
2023-07-26T18:53:46.299Z,99.90
2023-07-26T18:56:13.175Z,99.90
2023-07-26T18:58:40.179Z,99.90
2023-07-26T19:01:07.081Z,99.90
2023-07-26T19:03:34.107Z,99.90
2023-07-26T19:06:00.962Z,99.90
2023-07-26T19:08:28.429Z,99.90
2023-07-26T19:10:55.385Z,99.90
2023-07-26T19:13:22.332Z,99.90
2023-07-26T19:15:59.275Z,99.90
2023-07-26T19:18:26.908Z,99.90
2023-07-26T19:21:01.483Z,99.90
2023-07-26T19:23:28.590Z,99.90
2023-07-26T19:25:55.444Z,99.90
2023-07-26T19:28:22.348Z,99.90
2023-07-26T19:30:51.746Z,99.90
2023-07-26T19:33:19.219Z,99.90
2023-07-26T19:35:59.976Z,99.90
2023-07-26T19:38:29.451Z,99.90
2023-07-26T19:41:00.537Z,99.90
2023-07-26T19:43:27.502Z,99.90
2023-07-26T19:45:54.509Z,99.90
2023-07-26T19:48:21.482Z,99.90
2023-07-26T19:50:51.124Z,99.90
2023-07-26T19:53:18.263Z,99.90
2023-07-26T19:55:46.723Z,99.90
2023-07-26T19:58:14.728Z,99.90
2023-07-26T20:00:42.232Z,99.90
2023-07-26T20:03:09.437Z,99.90
2023-07-26T20:05:36.558Z,99.90
2023-07-26T20:08:03.866Z,99.90
2023-07-26T20:10:30.989Z,99.90
2023-07-26T20:12:57.872Z,99.90
2023-07-26T20:15:24.992Z,99.90
2023-07-26T20:17:51.971Z,99.90
2023-07-26T20:20:18.997Z,99.90
2023-07-26T20:22:45.928Z,99.90
2023-07-26T20:25:12.794Z,99.90
2023-07-26T20:27:39.676Z,99.90
2023-07-26T20:30:07.139Z,99.90
2023-07-26T20:32:34.059Z,99.90
2023-07-26T20:35:00.976Z,99.90
2023-07-26T20:37:27.962Z,99.90
2023-07-26T20:39:59.190Z,99.90
2023-07-26T20:42:28.826Z,99.90
2023-07-26T20:44:56.010Z,99.90
2023-07-26T20:47:22.900Z,99.90
2023-07-26T20:49:49.752Z,99.90
2023-07-26T20:52:17.421Z,99.90
2023-07-26T20:54:44.674Z,99.90
2023-07-26T20:57:11.551Z,99.90
2023-07-26T20:59:38.426Z,99.90
2023-07-26T21:02:05.564Z,99.90
2023-07-26T21:04:33.511Z,99.90
2023-07-26T21:07:00.487Z,99.90
2023-07-26T21:09:27.340Z,99.90
2023-07-26T21:11:54.231Z,99.90
2023-07-26T21:14:21.121Z,99.90
2023-07-26T21:16:48.179Z,99.90
2023-07-26T21:19:15.112Z,99.90
2023-07-26T21:21:42.193Z,99.90
2023-07-26T21:24:09.061Z,99.90
2023-07-26T21:26:36.490Z,99.90
2023-07-26T21:29:03.642Z,99.90
2023-07-26T21:31:30.589Z,99.90
2023-07-26T21:33:57.493Z,99.90
2023-07-26T21:36:25.956Z,99.90
2023-07-26T21:38:52.940Z,99.90
2023-07-26T21:41:20.154Z,99.90
2023-07-26T21:43:47.051Z,99.90
2023-07-26T21:46:14.058Z,99.90
2023-07-26T21:48:41.073Z,99.90
2023-07-26T21:51:07.937Z,99.90
2023-07-26T21:53:35.052Z,99.90
2023-07-26T21:56:02.033Z,99.90
2023-07-26T21:58:28.900Z,99.90
2023-07-26T22:00:56.117Z,99.90
2023-07-26T22:03:23.761Z,99.90
2023-07-26T22:05:53.956Z,99.90
2023-07-26T22:08:21.719Z,99.90
2023-07-26T22:10:48.682Z,99.90
2023-07-26T22:13:16.838Z,99.90
2023-07-26T22:15:46.153Z,99.90
2023-07-26T22:18:13.141Z,99.90
2023-07-26T22:20:56.768Z,99.90
2023-07-26T22:23:26.904Z,99.90
2023-07-26T22:26:07.366Z,99.90
2023-07-26T22:28:40.650Z,99.90
2023-07-26T22:31:07.599Z,99.90
2023-07-26T22:33:34.503Z,99.90
2023-07-26T22:36:04.762Z,99.90
2023-07-26T22:38:31.847Z,99.90
2023-07-26T22:40:58.765Z,99.90
2023-07-26T22:43:25.674Z,99.90
2023-07-26T22:45:52.632Z,99.90
2023-07-26T22:48:19.542Z,99.90
2023-07-26T22:50:46.397Z,99.90
2023-07-26T22:53:13.282Z,99.90
2023-07-26T22:55:40.306Z,99.90
2023-07-26T22:58:07.265Z,99.90
2023-07-26T23:00:34.285Z,99.90
2023-07-26T23:03:01.264Z,99.90
2023-07-26T23:05:29.532Z,99.90
2023-07-26T23:07:56.434Z,99.90
2023-07-26T23:10:23.315Z,99.90
2023-07-26T23:12:50.223Z,99.90
2023-07-26T23:15:17.222Z,99.90
2023-07-26T23:17:44.161Z,99.90
2023-07-26T23:20:11.358Z,99.90
2023-07-26T23:22:38.272Z,99.90
2023-07-26T23:25:05.918Z,99.90
2023-07-26T23:27:32.816Z,99.90
2023-07-26T23:29:59.793Z,99.90
2023-07-26T23:32:26.890Z,99.90
2023-07-26T23:34:53.816Z,99.90
2023-07-26T23:37:20.686Z,99.90
2023-07-26T23:39:47.533Z,99.90
2023-07-26T23:42:14.431Z,99.90
2023-07-26T23:44:41.526Z,99.90
2023-07-26T23:47:08.372Z,99.90
2023-07-26T23:49:35.993Z,99.90
2023-07-26T23:52:03.465Z,99.90
2023-07-26T23:54:30.354Z,99.90
2023-07-26T23:56:57.233Z,99.90
2023-07-26T23:59:24.214Z,99.90
